VOE2346 LFRB-LFST
Flight info
| Callsign | VOE2346 |
|---|---|
| Flight time | 1h 23m |
| Altitude | 31000 |
| Route | SOMEN DCT OTOFE UN491 POGZI DCT GELTA DCT LUVAL/N0421F300 DCT EPL |
| Aircraft | A320/M-SDFGHIJ1RWY/LB1 |
Departure
| Time | 2026-04-30 08:30 |
|---|---|
| Airport | Brest Bretagne airport (LFRB) |
Arrival
| Time | 2026-04-30 09:53 |
|---|---|
| Airport | Strasbourg Airport (LFST) |
| Time | Latitude | Longitude | Altitude | Speed | Heading |
|---|---|---|---|---|---|
| 2026-04-30 08:13 | 48.44418 | -4.42103 | 320 ft | 0 kts | 191° |
| 2026-04-30 08:22 | 48.44428 | -4.42101 | 320 ft | 4 kts | 184° |
| 2026-04-30 08:22 | 48.44453 | -4.42105 | 321 ft | 4 kts | 149° |
| 2026-04-30 08:22 | 48.44469 | -4.42131 | 323 ft | 4 kts | 101° |
| 2026-04-30 08:22 | 48.44466 | -4.42161 | 324 ft | 3 kts | 38° |
| 2026-04-30 08:23 | 48.44446 | -4.42187 | 323 ft | 3 kts | 42° |
| 2026-04-30 08:23 | 48.44443 | -4.42192 | 321 ft | 0 kts | 41° |
| 2026-04-30 08:25 | 48.44444 | -4.42189 | 322 ft | 1 kts | 41° |
| 2026-04-30 08:25 | 48.44475 | -4.42150 | 324 ft | 10 kts | 40° |
| 2026-04-30 08:26 | 48.44556 | -4.42100 | 324 ft | 14 kts | 351° |
| 2026-04-30 08:26 | 48.44652 | -4.42148 | 321 ft | 15 kts | 339° |
| 2026-04-30 08:26 | 48.44691 | -4.42269 | 318 ft | 15 kts | 258° |
| 2026-04-30 08:26 | 48.44654 | -4.42428 | 311 ft | 18 kts | 251° |
| 2026-04-30 08:27 | 48.44610 | -4.42624 | 308 ft | 22 kts | 251° |
| 2026-04-30 08:27 | 48.44556 | -4.42856 | 306 ft | 25 kts | 251° |
| 2026-04-30 08:27 | 48.44496 | -4.43117 | 304 ft | 27 kts | 251° |
| 2026-04-30 08:27 | 48.44435 | -4.43387 | 303 ft | 28 kts | 251° |
| 2026-04-30 08:28 | 48.44377 | -4.43662 | 299 ft | 22 kts | 255° |
| 2026-04-30 08:28 | 48.44379 | -4.43794 | 298 ft | 8 kts | 282° |
| 2026-04-30 08:28 | 48.44349 | -4.43815 | 298 ft | 7 kts | 144° |
| 2026-04-30 08:28 | 48.44354 | -4.43764 | 299 ft | 4 kts | 66° |
| 2026-04-30 08:29 | 48.44363 | -4.43723 | 302 ft | 10 kts | 71° |
| 2026-04-30 08:29 | 48.44448 | -4.43342 | 303 ft | 73 kts | 71° |
| 2026-04-30 08:29 | 48.44682 | -4.42313 | 316 ft | 131 kts | 71° |
| 2026-04-30 08:29 | 48.45030 | -4.40797 | 395 ft | 170 kts | 73° |
| 2026-04-30 08:30 | 48.45447 | -4.39112 | 1007 ft | 174 kts | 69° |
| 2026-04-30 08:30 | 48.46144 | -4.37586 | 1713 ft | 180 kts | 51° |
| 2026-04-30 08:30 | 48.47126 | -4.36344 | 2240 ft | 194 kts | 40° |
| 2026-04-30 08:30 | 48.48344 | -4.35205 | 2516 ft | 219 kts | 30° |
| 2026-04-30 08:31 | 48.49849 | -4.34496 | 2841 ft | 244 kts | 8° |
| 2026-04-30 08:31 | 48.51633 | -4.34618 | 3233 ft | 270 kts | 354° |
| 2026-04-30 08:31 | 48.53534 | -4.35019 | 3951 ft | 280 kts | 352° |
| 2026-04-30 08:31 | 48.55478 | -4.35484 | 4791 ft | 286 kts | 351° |
| 2026-04-30 08:32 | 48.57452 | -4.35976 | 5642 ft | 290 kts | 351° |
| 2026-04-30 08:32 | 48.59460 | -4.36345 | 6489 ft | 293 kts | 2° |
| 2026-04-30 08:32 | 48.61451 | -4.35759 | 7266 ft | 293 kts | 26° |
| 2026-04-30 08:32 | 48.63131 | -4.34154 | 8043 ft | 290 kts | 47° |
| 2026-04-30 08:33 | 48.64334 | -4.31765 | 8862 ft | 285 kts | 68° |
| 2026-04-30 08:33 | 48.65107 | -4.29018 | 9719 ft | 285 kts | 73° |
| 2026-04-30 08:33 | 48.65861 | -4.26222 | 10440 ft | 292 kts | 73° |
| 2026-04-30 08:33 | 48.66655 | -4.23264 | 10686 ft | 315 kts | 72° |
| 2026-04-30 08:34 | 48.67507 | -4.20099 | 11073 ft | 331 kts | 72° |
| 2026-04-30 08:34 | 48.68392 | -4.16844 | 11737 ft | 337 kts | 72° |
| 2026-04-30 08:34 | 48.69295 | -4.13548 | 12453 ft | 341 kts | 72° |
| 2026-04-30 08:34 | 48.70197 | -4.10254 | 13156 ft | 345 kts | 72° |
| 2026-04-30 08:35 | 48.71120 | -4.06874 | 13847 ft | 349 kts | 72° |
| 2026-04-30 08:35 | 48.72048 | -4.03455 | 14451 ft | 353 kts | 72° |
| 2026-04-30 08:35 | 48.72981 | -4.00003 | 15065 ft | 356 kts | 72° |
| 2026-04-30 08:35 | 48.73919 | -3.96516 | 15688 ft | 358 kts | 72° |
| 2026-04-30 08:36 | 48.74860 | -3.93007 | 16316 ft | 361 kts | 72° |
| 2026-04-30 08:36 | 48.75807 | -3.89466 | 16907 ft | 364 kts | 72° |
| 2026-04-30 08:36 | 48.76764 | -3.85896 | 17516 ft | 367 kts | 72° |
| 2026-04-30 08:36 | 48.77731 | -3.82294 | 18116 ft | 370 kts | 72° |
| 2026-04-30 08:37 | 48.78704 | -3.78663 | 18654 ft | 373 kts | 72° |
| 2026-04-30 08:37 | 48.79669 | -3.75051 | 19166 ft | 376 kts | 72° |
| 2026-04-30 08:37 | 48.80653 | -3.71365 | 19680 ft | 378 kts | 72° |
| 2026-04-30 08:37 | 48.81640 | -3.67657 | 20205 ft | 380 kts | 72° |
| 2026-04-30 08:38 | 48.82630 | -3.63924 | 20718 ft | 383 kts | 72° |
| 2026-04-30 08:38 | 48.83629 | -3.60166 | 21221 ft | 385 kts | 72° |
| 2026-04-30 08:38 | 48.84609 | -3.56378 | 21709 ft | 385 kts | 76° |
| 2026-04-30 08:38 | 48.85236 | -3.52444 | 22194 ft | 382 kts | 86° |
| 2026-04-30 08:39 | 48.85583 | -3.48439 | 22665 ft | 384 kts | 86° |
| 2026-04-30 08:39 | 48.85924 | -3.44461 | 23137 ft | 386 kts | 86° |
| 2026-04-30 08:39 | 48.86276 | -3.40406 | 23596 ft | 388 kts | 86° |
| 2026-04-30 08:39 | 48.86631 | -3.36329 | 23972 ft | 391 kts | 86° |
| 2026-04-30 08:40 | 48.86990 | -3.32223 | 24363 ft | 393 kts | 86° |
| 2026-04-30 08:40 | 48.87350 | -3.28094 | 24754 ft | 396 kts | 86° |
| 2026-04-30 08:40 | 48.87708 | -3.23940 | 25116 ft | 398 kts | 86° |
| 2026-04-30 08:40 | 48.88065 | -3.19763 | 25475 ft | 400 kts | 86° |
| 2026-04-30 08:41 | 48.88424 | -3.15560 | 25835 ft | 402 kts | 86° |
| 2026-04-30 08:41 | 48.88773 | -3.11391 | 26198 ft | 404 kts | 87° |
| 2026-04-30 08:41 | 48.89125 | -3.07142 | 26560 ft | 407 kts | 87° |
| 2026-04-30 08:41 | 48.89481 | -3.02864 | 26875 ft | 410 kts | 86° |
| 2026-04-30 08:42 | 48.89840 | -2.98553 | 27215 ft | 413 kts | 86° |
| 2026-04-30 08:42 | 48.90203 | -2.94213 | 27546 ft | 415 kts | 86° |
| 2026-04-30 08:42 | 48.90564 | -2.89853 | 27881 ft | 417 kts | 86° |
| 2026-04-30 08:42 | 48.90928 | -2.85468 | 28217 ft | 419 kts | 86° |
| 2026-04-30 08:43 | 48.91292 | -2.81059 | 28542 ft | 421 kts | 86° |
| 2026-04-30 08:43 | 48.91655 | -2.76632 | 28871 ft | 423 kts | 86° |
| 2026-04-30 08:43 | 48.92017 | -2.72177 | 29185 ft | 426 kts | 86° |
| 2026-04-30 08:43 | 48.92373 | -2.67763 | 29499 ft | 428 kts | 86° |
| 2026-04-30 08:44 | 48.92734 | -2.63266 | 29792 ft | 429 kts | 86° |
| 2026-04-30 08:44 | 48.93093 | -2.58749 | 30094 ft | 431 kts | 86° |
| 2026-04-30 08:44 | 48.93452 | -2.54222 | 30369 ft | 432 kts | 86° |
| 2026-04-30 08:44 | 48.93781 | -2.49678 | 30636 ft | 432 kts | 90° |
| 2026-04-30 08:45 | 48.93752 | -2.45119 | 30915 ft | 431 kts | 96° |
| 2026-04-30 08:45 | 48.93585 | -2.40574 | 31048 ft | 429 kts | 96° |
| 2026-04-30 08:45 | 48.93426 | -2.36122 | 31068 ft | 414 kts | 96° |
| 2026-04-30 08:46 | 48.93110 | -2.27568 | 31077 ft | 405 kts | 96° |
| 2026-04-30 08:46 | 48.92780 | -2.19043 | 31069 ft | 404 kts | 96° |
| 2026-04-30 08:47 | 48.92449 | -2.10521 | 31082 ft | 403 kts | 96° |
| 2026-04-30 08:47 | 48.92118 | -2.02007 | 31086 ft | 403 kts | 96° |
| 2026-04-30 08:48 | 48.91782 | -1.93555 | 31074 ft | 403 kts | 96° |
| 2026-04-30 08:48 | 48.91435 | -1.85048 | 31082 ft | 403 kts | 96° |
| 2026-04-30 08:49 | 48.91085 | -1.76549 | 31084 ft | 403 kts | 96° |
| 2026-04-30 08:49 | 48.90729 | -1.68048 | 31061 ft | 403 kts | 95° |
| 2026-04-30 08:50 | 48.90364 | -1.59529 | 31067 ft | 404 kts | 95° |
| 2026-04-30 08:50 | 48.89990 | -1.51055 | 31072 ft | 405 kts | 95° |
| 2026-04-30 08:51 | 48.89611 | -1.42514 | 31075 ft | 405 kts | 95° |
| 2026-04-30 08:51 | 48.89234 | -1.33971 | 31082 ft | 405 kts | 95° |
| 2026-04-30 08:52 | 48.88846 | -1.25422 | 31072 ft | 406 kts | 96° |
| 2026-04-30 08:52 | 48.88457 | -1.16927 | 31077 ft | 406 kts | 96° |
| 2026-04-30 08:53 | 48.88059 | -1.08363 | 31087 ft | 406 kts | 95° |
| 2026-04-30 08:53 | 48.87645 | -0.99795 | 31093 ft | 407 kts | 95° |
| 2026-04-30 08:54 | 48.87226 | -0.91224 | 31089 ft | 407 kts | 95° |
| 2026-04-30 08:54 | 48.86809 | -0.82702 | 31093 ft | 408 kts | 95° |
| 2026-04-30 08:55 | 48.86385 | -0.74106 | 31095 ft | 409 kts | 95° |
| 2026-04-30 08:55 | 48.85952 | -0.65494 | 31094 ft | 409 kts | 95° |
| 2026-04-30 08:56 | 48.85504 | -0.56880 | 31097 ft | 409 kts | 95° |
| 2026-04-30 08:56 | 48.85055 | -0.48265 | 31103 ft | 409 kts | 96° |
| 2026-04-30 08:57 | 48.84605 | -0.39710 | 31102 ft | 410 kts | 96° |
| 2026-04-30 08:57 | 48.84142 | -0.31094 | 31101 ft | 410 kts | 96° |
| 2026-04-30 08:58 | 48.83665 | -0.22473 | 31106 ft | 410 kts | 96° |
| 2026-04-30 08:58 | 48.83169 | -0.13859 | 31106 ft | 410 kts | 96° |
| 2026-04-30 08:59 | 48.82661 | -0.05305 | 31105 ft | 410 kts | 96° |
| 2026-04-30 08:59 | 48.82147 | 0.03308 | 31088 ft | 410 kts | 96° |
| 2026-04-30 09:00 | 48.81622 | 0.11948 | 31081 ft | 412 kts | 96° |
| 2026-04-30 09:00 | 48.81095 | 0.20619 | 31084 ft | 413 kts | 96° |
| 2026-04-30 09:01 | 48.80567 | 0.29242 | 31091 ft | 414 kts | 96° |
| 2026-04-30 09:01 | 48.80020 | 0.37934 | 31102 ft | 414 kts | 96° |
| 2026-04-30 09:02 | 48.79195 | 0.50945 | 31126 ft | 412 kts | 96° |
| 2026-04-30 09:02 | 48.78255 | 0.59468 | 31143 ft | 409 kts | 102° |
| 2026-04-30 09:03 | 48.77182 | 0.67861 | 31145 ft | 408 kts | 102° |
| 2026-04-30 09:03 | 48.76099 | 0.76279 | 31145 ft | 407 kts | 102° |
| 2026-04-30 09:04 | 48.75011 | 0.84684 | 31132 ft | 406 kts | 102° |
| 2026-04-30 09:04 | 48.73926 | 0.93074 | 31138 ft | 405 kts | 102° |
| 2026-04-30 09:05 | 48.72853 | 1.01394 | 31141 ft | 405 kts | 102° |
| 2026-04-30 09:05 | 48.71771 | 1.09751 | 31150 ft | 404 kts | 102° |
| 2026-04-30 09:06 | 48.70678 | 1.18099 | 31149 ft | 404 kts | 102° |
| 2026-04-30 09:06 | 48.69575 | 1.26434 | 31146 ft | 404 kts | 102° |
| 2026-04-30 09:07 | 48.68474 | 1.34701 | 31153 ft | 403 kts | 103° |
| 2026-04-30 09:07 | 48.67368 | 1.42980 | 31174 ft | 400 kts | 103° |
| 2026-04-30 09:08 | 48.66263 | 1.51205 | 31170 ft | 398 kts | 103° |
| 2026-04-30 09:08 | 48.65158 | 1.59409 | 31175 ft | 397 kts | 103° |
| 2026-04-30 09:09 | 48.64053 | 1.67592 | 31173 ft | 397 kts | 103° |
| 2026-04-30 09:09 | 48.62937 | 1.75711 | 31146 ft | 398 kts | 103° |
| 2026-04-30 09:10 | 48.61808 | 1.83887 | 31159 ft | 397 kts | 103° |
| 2026-04-30 09:10 | 48.60677 | 1.92037 | 31170 ft | 396 kts | 103° |
| 2026-04-30 09:11 | 48.59540 | 2.00174 | 31169 ft | 395 kts | 103° |
| 2026-04-30 09:11 | 48.58408 | 2.08234 | 31165 ft | 395 kts | 103° |
| 2026-04-30 09:12 | 48.57257 | 2.16339 | 31162 ft | 394 kts | 103° |
| 2026-04-30 09:12 | 48.56712 | 2.24569 | 31182 ft | 395 kts | 94° |
| 2026-04-30 09:13 | 48.56489 | 2.32845 | 31186 ft | 394 kts | 94° |
| 2026-04-30 09:13 | 48.56253 | 2.41052 | 31184 ft | 394 kts | 94° |
| 2026-04-30 09:14 | 48.56011 | 2.49300 | 31181 ft | 393 kts | 94° |
| 2026-04-30 09:14 | 48.55768 | 2.57544 | 31181 ft | 393 kts | 94° |
| 2026-04-30 09:15 | 48.55516 | 2.65785 | 31176 ft | 393 kts | 94° |
| 2026-04-30 09:15 | 48.55255 | 2.73960 | 31179 ft | 392 kts | 94° |
| 2026-04-30 09:16 | 48.54994 | 2.82179 | 31174 ft | 392 kts | 94° |
| 2026-04-30 09:16 | 48.54728 | 2.90398 | 31176 ft | 392 kts | 94° |
| 2026-04-30 09:17 | 48.54456 | 2.98612 | 31178 ft | 392 kts | 94° |
| 2026-04-30 09:17 | 48.54168 | 3.06829 | 31177 ft | 392 kts | 94° |
| 2026-04-30 09:18 | 48.53883 | 3.14977 | 31183 ft | 391 kts | 94° |
| 2026-04-30 09:18 | 48.53591 | 3.23178 | 31186 ft | 391 kts | 94° |
| 2026-04-30 09:19 | 48.53292 | 3.31372 | 31190 ft | 391 kts | 94° |
| 2026-04-30 09:19 | 48.52993 | 3.39558 | 31189 ft | 391 kts | 94° |
| 2026-04-30 09:20 | 48.52686 | 3.47688 | 31190 ft | 390 kts | 94° |
| 2026-04-30 09:20 | 48.52373 | 3.55852 | 31196 ft | 390 kts | 94° |
| 2026-04-30 09:21 | 48.52051 | 3.64007 | 31202 ft | 389 kts | 94° |
| 2026-04-30 09:21 | 48.51733 | 3.72154 | 31203 ft | 389 kts | 94° |
| 2026-04-30 09:22 | 48.51404 | 3.80242 | 31196 ft | 389 kts | 94° |
| 2026-04-30 09:22 | 48.51068 | 3.88374 | 31194 ft | 388 kts | 94° |
| 2026-04-30 09:23 | 48.50724 | 3.96499 | 31189 ft | 388 kts | 94° |
| 2026-04-30 09:23 | 48.50073 | 4.04555 | 31186 ft | 388 kts | 105° |
| 2026-04-30 09:24 | 48.48634 | 4.12389 | 31183 ft | 388 kts | 105° |
| 2026-04-30 09:24 | 48.47221 | 4.20177 | 31183 ft | 388 kts | 105° |
| 2026-04-30 09:25 | 48.45789 | 4.28019 | 31183 ft | 388 kts | 105° |
| 2026-04-30 09:25 | 48.44346 | 4.35848 | 31183 ft | 388 kts | 105° |
| 2026-04-30 09:26 | 48.42915 | 4.43624 | 31182 ft | 388 kts | 105° |
| 2026-04-30 09:26 | 48.41464 | 4.51444 | 31181 ft | 388 kts | 105° |
| 2026-04-30 09:27 | 48.40006 | 4.59260 | 31181 ft | 388 kts | 105° |
| 2026-04-30 09:27 | 48.38548 | 4.67072 | 31173 ft | 388 kts | 105° |
| 2026-04-30 09:28 | 48.37334 | 4.73570 | 31177 ft | 388 kts | 105° |
| 2026-04-30 09:28 | 48.35623 | 4.82647 | 31174 ft | 389 kts | 104° |
| 2026-04-30 09:29 | 48.34145 | 4.90465 | 31174 ft | 389 kts | 105° |
| 2026-04-30 09:29 | 48.32906 | 4.96964 | 31180 ft | 389 kts | 105° |
| 2026-04-30 09:30 | 48.31416 | 5.04793 | 31180 ft | 390 kts | 105° |
| 2026-04-30 09:30 | 48.29934 | 5.12638 | 31180 ft | 390 kts | 102° |
| 2026-04-30 09:31 | 48.29584 | 5.22036 | 31174 ft | 390 kts | 87° |
| 2026-04-30 09:31 | 48.29792 | 5.28801 | 31179 ft | 390 kts | 87° |
| 2026-04-30 09:32 | 48.30031 | 5.36932 | 30974 ft | 387 kts | 88° |
| 2026-04-30 09:32 | 48.30145 | 5.40957 | 30482 ft | 384 kts | 88° |
| 2026-04-30 09:32 | 48.30254 | 5.44944 | 29985 ft | 380 kts | 88° |
| 2026-04-30 09:33 | 48.30361 | 5.48877 | 29534 ft | 374 kts | 88° |
| 2026-04-30 09:33 | 48.30465 | 5.52753 | 29096 ft | 369 kts | 88° |
| 2026-04-30 09:33 | 48.30567 | 5.56566 | 28678 ft | 363 kts | 88° |
| 2026-04-30 09:33 | 48.30668 | 5.60324 | 28269 ft | 357 kts | 87° |
| 2026-04-30 09:34 | 48.30765 | 5.63972 | 27878 ft | 352 kts | 87° |
| 2026-04-30 09:34 | 48.30862 | 5.67615 | 27494 ft | 347 kts | 87° |
| 2026-04-30 09:34 | 48.30956 | 5.71210 | 27111 ft | 342 kts | 87° |
| 2026-04-30 09:34 | 48.31044 | 5.74751 | 26741 ft | 337 kts | 87° |
| 2026-04-30 09:35 | 48.31128 | 5.78241 | 26379 ft | 332 kts | 87° |
| 2026-04-30 09:35 | 48.31214 | 5.81690 | 26006 ft | 328 kts | 87° |
| 2026-04-30 09:35 | 48.31297 | 5.85102 | 25624 ft | 325 kts | 87° |
| 2026-04-30 09:35 | 48.31378 | 5.88481 | 25253 ft | 322 kts | 87° |
| 2026-04-30 09:36 | 48.31455 | 5.91784 | 24876 ft | 320 kts | 87° |
| 2026-04-30 09:36 | 48.31532 | 5.95108 | 24483 ft | 317 kts | 86° |
| 2026-04-30 09:36 | 48.31606 | 5.98413 | 24094 ft | 315 kts | 86° |
| 2026-04-30 09:36 | 48.31680 | 6.01694 | 23675 ft | 314 kts | 86° |
| 2026-04-30 09:37 | 48.31755 | 6.04962 | 23250 ft | 312 kts | 86° |
| 2026-04-30 09:37 | 48.31831 | 6.08203 | 22823 ft | 310 kts | 86° |
| 2026-04-30 09:37 | 48.31910 | 6.11431 | 22401 ft | 309 kts | 86° |
| 2026-04-30 09:37 | 48.31985 | 6.14646 | 21981 ft | 308 kts | 86° |
| 2026-04-30 09:38 | 48.32061 | 6.17856 | 21574 ft | 307 kts | 86° |
| 2026-04-30 09:38 | 48.32135 | 6.21009 | 21153 ft | 306 kts | 86° |
| 2026-04-30 09:38 | 48.32204 | 6.24203 | 20743 ft | 306 kts | 87° |
| 2026-04-30 09:38 | 48.32271 | 6.27391 | 20329 ft | 306 kts | 87° |
| 2026-04-30 09:39 | 48.32340 | 6.30590 | 19912 ft | 306 kts | 87° |
| 2026-04-30 09:39 | 48.32410 | 6.33789 | 19501 ft | 306 kts | 87° |
| 2026-04-30 09:39 | 48.32479 | 6.36990 | 19094 ft | 308 kts | 87° |
| 2026-04-30 09:39 | 48.32549 | 6.40266 | 18790 ft | 316 kts | 87° |
| 2026-04-30 09:40 | 48.32616 | 6.43576 | 18452 ft | 317 kts | 87° |
| 2026-04-30 09:40 | 48.32679 | 6.46837 | 18094 ft | 316 kts | 87° |
| 2026-04-30 09:40 | 48.32742 | 6.50119 | 17763 ft | 314 kts | 87° |
| 2026-04-30 09:40 | 48.32805 | 6.53391 | 17433 ft | 312 kts | 87° |
| 2026-04-30 09:41 | 48.32865 | 6.56646 | 17104 ft | 311 kts | 87° |
| 2026-04-30 09:41 | 48.32924 | 6.59885 | 16780 ft | 310 kts | 87° |
| 2026-04-30 09:41 | 48.32983 | 6.63113 | 16457 ft | 308 kts | 87° |
| 2026-04-30 09:41 | 48.33044 | 6.66323 | 16136 ft | 307 kts | 87° |
| 2026-04-30 09:42 | 48.33103 | 6.69517 | 15819 ft | 305 kts | 87° |
| 2026-04-30 09:42 | 48.33161 | 6.72660 | 15508 ft | 304 kts | 87° |
| 2026-04-30 09:42 | 48.33218 | 6.75830 | 15191 ft | 302 kts | 87° |
| 2026-04-30 09:42 | 48.33274 | 6.78981 | 14875 ft | 301 kts | 87° |
| 2026-04-30 09:43 | 48.33330 | 6.82122 | 14564 ft | 300 kts | 87° |
| 2026-04-30 09:43 | 48.33384 | 6.85248 | 14255 ft | 299 kts | 87° |
| 2026-04-30 09:43 | 48.33437 | 6.88362 | 13933 ft | 297 kts | 87° |
| 2026-04-30 09:43 | 48.33487 | 6.91467 | 13618 ft | 298 kts | 87° |
| 2026-04-30 09:44 | 48.33536 | 6.94567 | 13307 ft | 296 kts | 87° |
| 2026-04-30 09:44 | 48.33581 | 6.97647 | 12996 ft | 293 kts | 87° |
| 2026-04-30 09:44 | 48.33624 | 7.00650 | 12752 ft | 288 kts | 88° |
| 2026-04-30 09:44 | 48.33668 | 7.03660 | 12451 ft | 286 kts | 87° |
| 2026-04-30 09:45 | 48.33713 | 7.06630 | 12209 ft | 282 kts | 87° |
| 2026-04-30 09:45 | 48.33759 | 7.09578 | 11794 ft | 284 kts | 87° |
| 2026-04-30 09:45 | 48.33804 | 7.12533 | 11238 ft | 283 kts | 88° |
| 2026-04-30 09:45 | 48.33846 | 7.15478 | 10594 ft | 282 kts | 88° |
| 2026-04-30 09:46 | 48.33885 | 7.18433 | 9853 ft | 283 kts | 89° |
| 2026-04-30 09:46 | 48.33925 | 7.21399 | 9062 ft | 284 kts | 89° |
| 2026-04-30 09:46 | 48.33966 | 7.24325 | 8322 ft | 283 kts | 89° |
| 2026-04-30 09:46 | 48.34063 | 7.27223 | 7688 ft | 276 kts | 81° |
| 2026-04-30 09:47 | 48.34694 | 7.29942 | 6963 ft | 277 kts | 62° |
| 2026-04-30 09:47 | 48.35845 | 7.32207 | 6499 ft | 269 kts | 52° |
| 2026-04-30 09:47 | 48.37059 | 7.34254 | 6074 ft | 256 kts | 51° |
| 2026-04-30 09:47 | 48.38213 | 7.36206 | 5668 ft | 244 kts | 52° |
| 2026-04-30 09:48 | 48.39312 | 7.38070 | 5308 ft | 233 kts | 52° |
| 2026-04-30 09:48 | 48.40368 | 7.39862 | 4956 ft | 225 kts | 53° |
| 2026-04-30 09:48 | 48.41378 | 7.41577 | 4597 ft | 219 kts | 52° |
| 2026-04-30 09:48 | 48.42374 | 7.43272 | 4255 ft | 214 kts | 52° |
| 2026-04-30 09:49 | 48.43343 | 7.44917 | 3910 ft | 202 kts | 52° |
| 2026-04-30 09:49 | 48.44248 | 7.46455 | 3623 ft | 192 kts | 53° |
| 2026-04-30 09:49 | 48.45099 | 7.47905 | 3344 ft | 177 kts | 52° |
| 2026-04-30 09:49 | 48.45885 | 7.49243 | 3076 ft | 165 kts | 52° |
| 2026-04-30 09:50 | 48.46616 | 7.50490 | 2817 ft | 152 kts | 50° |
| 2026-04-30 09:50 | 48.47286 | 7.51631 | 2555 ft | 140 kts | 51° |
| 2026-04-30 09:50 | 48.47924 | 7.52722 | 2317 ft | 137 kts | 50° |
| 2026-04-30 09:50 | 48.48553 | 7.53787 | 2090 ft | 133 kts | 49° |
| 2026-04-30 09:51 | 48.49164 | 7.54822 | 1853 ft | 133 kts | 50° |
| 2026-04-30 09:51 | 48.49771 | 7.55887 | 1695 ft | 133 kts | 50° |
| 2026-04-30 09:51 | 48.50384 | 7.56937 | 1458 ft | 134 kts | 50° |
| 2026-04-30 09:51 | 48.51003 | 7.57988 | 1267 ft | 133 kts | 47° |
| 2026-04-30 09:52 | 48.51621 | 7.59046 | 1051 ft | 133 kts | 48° |
| 2026-04-30 09:52 | 48.52229 | 7.60100 | 842 ft | 132 kts | 46° |
| 2026-04-30 09:52 | 48.52845 | 7.61135 | 631 ft | 133 kts | 47° |
| 2026-04-30 09:52 | 48.53437 | 7.62164 | 514 ft | 121 kts | 41° |
| 2026-04-30 09:53 | 48.53889 | 7.62921 | 510 ft | 73 kts | 48° |
| 2026-04-30 09:53 | 48.54129 | 7.63336 | 512 ft | 28 kts | 51° |
| 2026-04-30 09:53 | 48.54213 | 7.63397 | 512 ft | 10 kts | 340° |
| 2026-04-30 09:53 | 48.54262 | 7.63339 | 512 ft | 8 kts | 317° |
| 2026-04-30 09:54 | 48.54267 | 7.63331 | 512 ft | 0 kts | 317° |
| 2026-04-30 09:54 | 48.54282 | 7.63309 | 512 ft | 4 kts | 314° |
| 2026-04-30 09:54 | 48.54295 | 7.63264 | 512 ft | 9 kts | 279° |
| 2026-04-30 09:55 | 48.54252 | 7.63147 | 512 ft | 18 kts | 227° |
| 2026-04-30 09:55 | 48.54176 | 7.63012 | 512 ft | 16 kts | 242° |
| 2026-04-30 09:55 | 48.54215 | 7.62882 | 512 ft | 15 kts | 320° |
| 2026-04-30 09:55 | 48.54311 | 7.62858 | 512 ft | 16 kts | 37° |
| 2026-04-30 09:56 | 48.54383 | 7.62983 | 512 ft | 12 kts | 48° |
| 2026-04-30 09:56 | 48.54424 | 7.62969 | 512 ft | 8 kts | 296° |
| 2026-04-30 09:56 | 48.54446 | 7.62918 | 512 ft | 1 kts | 303° |
| 2026-04-30 09:56 | 48.54451 | 7.62907 | 512 ft | 2 kts | 304° |
| 2026-04-30 09:57 | 48.54452 | 7.62906 | 512 ft | 0 kts | 304° |